sensor_id;sensor_type;location;lat;lon;timestamp;P1;durP1;ratioP1;P2;durP2;ratioP2
24084;SDS011;12268;52.110;5.548;2023-06-19T00:00:09;11.23;;;8.55;;
24084;SDS011;12268;52.110;5.548;2023-06-19T00:02:39;10.80;;;8.63;;
24084;SDS011;12268;52.110;5.548;2023-06-19T00:05:05;12.98;;;10.05;;
24084;SDS011;12268;52.110;5.548;2023-06-19T00:07:32;12.68;;;9.50;;
24084;SDS011;12268;52.110;5.548;2023-06-19T00:09:58;11.05;;;8.50;;
24084;SDS011;12268;52.110;5.548;2023-06-19T00:12:24;11.90;;;9.05;;
24084;SDS011;12268;52.110;5.548;2023-06-19T00:14:49;11.68;;;9.23;;
24084;SDS011;12268;52.110;5.548;2023-06-19T00:17:15;13.63;;;9.73;;
24084;SDS011;12268;52.110;5.548;2023-06-19T00:19:41;12.43;;;9.18;;
24084;SDS011;12268;52.110;5.548;2023-06-19T00:22:07;10.32;;;8.18;;
24084;SDS011;12268;52.110;5.548;2023-06-19T00:24:33;13.13;;;8.13;;
24084;SDS011;12268;52.110;5.548;2023-06-19T00:26:58;12.23;;;8.70;;
24084;SDS011;12268;52.110;5.548;2023-06-19T00:29:31;10.40;;;8.93;;
24084;SDS011;12268;52.110;5.548;2023-06-19T00:31:58;10.25;;;8.27;;
24084;SDS011;12268;52.110;5.548;2023-06-19T00:34:24;13.55;;;9.25;;
24084;SDS011;12268;52.110;5.548;2023-06-19T00:36:50;11.63;;;8.20;;
24084;SDS011;12268;52.110;5.548;2023-06-19T00:39:16;10.90;;;8.60;;
24084;SDS011;12268;52.110;5.548;2023-06-19T00:41:42;12.65;;;8.70;;
24084;SDS011;12268;52.110;5.548;2023-06-19T00:44:09;11.68;;;8.77;;
24084;SDS011;12268;52.110;5.548;2023-06-19T00:46:38;13.02;;;8.80;;
24084;SDS011;12268;52.110;5.548;2023-06-19T00:49:05;10.43;;;8.13;;
24084;SDS011;12268;52.110;5.548;2023-06-19T00:51:32;10.82;;;8.73;;
24084;SDS011;12268;52.110;5.548;2023-06-19T00:53:57;17.08;;;9.02;;
24084;SDS011;12268;52.110;5.548;2023-06-19T00:56:23;12.10;;;8.75;;
24084;SDS011;12268;52.110;5.548;2023-06-19T00:58:48;10.02;;;7.88;;
24084;SDS011;12268;52.110;5.548;2023-06-19T01:01:14;11.13;;;8.32;;
24084;SDS011;12268;52.110;5.548;2023-06-19T01:03:40;13.63;;;8.60;;
24084;SDS011;12268;52.110;5.548;2023-06-19T01:06:08;12.93;;;8.98;;
24084;SDS011;12268;52.110;5.548;2023-06-19T01:11:31;10.85;;;8.52;;
24084;SDS011;12268;52.110;5.548;2023-06-19T01:14:12;12.20;;;8.43;;
24084;SDS011;12268;52.110;5.548;2023-06-19T01:16:43;13.38;;;9.98;;
24084;SDS011;12268;52.110;5.548;2023-06-19T01:19:10;10.77;;;8.93;;
24084;SDS011;12268;52.110;5.548;2023-06-19T01:21:35;14.02;;;9.32;;
24084;SDS011;12268;52.110;5.548;2023-06-19T01:24:02;12.90;;;9.80;;
24084;SDS011;12268;52.110;5.548;2023-06-19T01:26:27;13.63;;;9.85;;
24084;SDS011;12268;52.110;5.548;2023-06-19T01:28:53;12.05;;;8.98;;
24084;SDS011;12268;52.110;5.548;2023-06-19T01:31:28;11.77;;;8.65;;
24084;SDS011;12268;52.110;5.548;2023-06-19T01:33:58;11.20;;;8.18;;
24084;SDS011;12268;52.110;5.548;2023-06-19T01:36:25;11.23;;;7.30;;
24084;SDS011;12268;52.110;5.548;2023-06-19T01:38:51;9.10;;;6.53;;
24084;SDS011;12268;52.110;5.548;2023-06-19T01:41:20;10.20;;;6.32;;
24084;SDS011;12268;52.110;5.548;2023-06-19T01:43:47;8.75;;;6.10;;
24084;SDS011;12268;52.110;5.548;2023-06-19T01:46:14;7.22;;;5.18;;
24084;SDS011;12268;52.110;5.548;2023-06-19T01:48:39;8.18;;;5.40;;
24084;SDS011;12268;52.110;5.548;2023-06-19T01:51:05;8.18;;;5.30;;
24084;SDS011;12268;52.110;5.548;2023-06-19T01:53:31;9.65;;;5.30;;
24084;SDS011;12268;52.110;5.548;2023-06-19T01:55:57;7.22;;;4.63;;
24084;SDS011;12268;52.110;5.548;2023-06-19T01:58:23;6.30;;;4.35;;
24084;SDS011;12268;52.110;5.548;2023-06-19T02:00:49;8.68;;;4.90;;
24084;SDS011;12268;52.110;5.548;2023-06-19T02:03:14;6.53;;;4.60;;
24084;SDS011;12268;52.110;5.548;2023-06-19T02:05:40;8.30;;;4.95;;
24084;SDS011;12268;52.110;5.548;2023-06-19T02:08:06;11.50;;;5.40;;
24084;SDS011;12268;52.110;5.548;2023-06-19T02:10:32;7.40;;;4.30;;
24084;SDS011;12268;52.110;5.548;2023-06-19T02:12:57;7.03;;;4.90;;
24084;SDS011;12268;52.110;5.548;2023-06-19T02:15:23;6.78;;;4.50;;
24084;SDS011;12268;52.110;5.548;2023-06-19T02:17:48;5.93;;;3.55;;
24084;SDS011;12268;52.110;5.548;2023-06-19T02:20:14;6.90;;;3.80;;
24084;SDS011;12268;52.110;5.548;2023-06-19T02:22:40;4.78;;;3.17;;
24084;SDS011;12268;52.110;5.548;2023-06-19T02:25:06;5.68;;;3.25;;
24084;SDS011;12268;52.110;5.548;2023-06-19T02:27:32;6.13;;;3.17;;
24084;SDS011;12268;52.110;5.548;2023-06-19T02:29:57;5.53;;;3.30;;
24084;SDS011;12268;52.110;5.548;2023-06-19T02:32:23;6.65;;;3.25;;
24084;SDS011;12268;52.110;5.548;2023-06-19T02:34:49;5.20;;;3.47;;
24084;SDS011;12268;52.110;5.548;2023-06-19T02:37:15;4.90;;;3.40;;
24084;SDS011;12268;52.110;5.548;2023-06-19T02:39:40;4.85;;;3.22;;
24084;SDS011;12268;52.110;5.548;2023-06-19T02:42:06;4.95;;;3.17;;
24084;SDS011;12268;52.110;5.548;2023-06-19T02:44:32;6.68;;;3.67;;
24084;SDS011;12268;52.110;5.548;2023-06-19T02:46:57;5.88;;;3.80;;
24084;SDS011;12268;52.110;5.548;2023-06-19T02:49:23;6.95;;;3.15;;
24084;SDS011;12268;52.110;5.548;2023-06-19T02:51:48;5.50;;;3.30;;
24084;SDS011;12268;52.110;5.548;2023-06-19T02:54:14;5.38;;;3.30;;
24084;SDS011;12268;52.110;5.548;2023-06-19T02:56:40;5.25;;;3.10;;
24084;SDS011;12268;52.110;5.548;2023-06-19T02:59:05;5.82;;;3.70;;
24084;SDS011;12268;52.110;5.548;2023-06-19T03:01:31;5.22;;;3.60;;
24084;SDS011;12268;52.110;5.548;2023-06-19T03:03:57;5.07;;;3.30;;
24084;SDS011;12268;52.110;5.548;2023-06-19T03:06:22;4.93;;;3.35;;
24084;SDS011;12268;52.110;5.548;2023-06-19T03:08:48;5.75;;;3.53;;
24084;SDS011;12268;52.110;5.548;2023-06-19T03:11:13;7.55;;;4.03;;
24084;SDS011;12268;52.110;5.548;2023-06-19T03:13:52;5.68;;;3.63;;
24084;SDS011;12268;52.110;5.548;2023-06-19T03:16:19;7.80;;;3.78;;
24084;SDS011;12268;52.110;5.548;2023-06-19T03:18:45;4.68;;;3.60;;
24084;SDS011;12268;52.110;5.548;2023-06-19T03:21:15;6.07;;;3.63;;
24084;SDS011;12268;52.110;5.548;2023-06-19T03:23:41;5.32;;;3.53;;
24084;SDS011;12268;52.110;5.548;2023-06-19T03:26:07;5.55;;;3.78;;
24084;SDS011;12268;52.110;5.548;2023-06-19T03:28:33;5.30;;;3.67;;
24084;SDS011;12268;52.110;5.548;2023-06-19T03:30:59;8.93;;;3.95;;
24084;SDS011;12268;52.110;5.548;2023-06-19T03:33:25;5.53;;;3.70;;
24084;SDS011;12268;52.110;5.548;2023-06-19T03:35:51;6.63;;;3.80;;
24084;SDS011;12268;52.110;5.548;2023-06-19T03:38:17;5.28;;;3.67;;
24084;SDS011;12268;52.110;5.548;2023-06-19T03:40:42;6.22;;;4.38;;
24084;SDS011;12268;52.110;5.548;2023-06-19T03:43:08;6.03;;;4.22;;
24084;SDS011;12268;52.110;5.548;2023-06-19T03:45:33;5.32;;;3.30;;
24084;SDS011;12268;52.110;5.548;2023-06-19T03:47:59;7.35;;;3.88;;
24084;SDS011;12268;52.110;5.548;2023-06-19T03:50:24;6.38;;;3.92;;
24084;SDS011;12268;52.110;5.548;2023-06-19T03:52:50;6.10;;;3.70;;
24084;SDS011;12268;52.110;5.548;2023-06-19T03:55:15;5.68;;;3.80;;
24084;SDS011;12268;52.110;5.548;2023-06-19T03:57:41;8.23;;;4.28;;
24084;SDS011;12268;52.110;5.548;2023-06-19T04:00:06;6.85;;;4.50;;
24084;SDS011;12268;52.110;5.548;2023-06-19T04:02:33;10.40;;;4.97;;
24084;SDS011;12268;52.110;5.548;2023-06-19T04:04:59;8.15;;;4.95;;
24084;SDS011;12268;52.110;5.548;2023-06-19T04:07:24;5.93;;;4.68;;
24084;SDS011;12268;52.110;5.548;2023-06-19T04:09:50;6.97;;;4.68;;
24084;SDS011;12268;52.110;5.548;2023-06-19T04:12:15;7.32;;;4.82;;
24084;SDS011;12268;52.110;5.548;2023-06-19T04:14:41;8.18;;;5.55;;
24084;SDS011;12268;52.110;5.548;2023-06-19T04:17:07;7.78;;;5.97;;
24084;SDS011;12268;52.110;5.548;2023-06-19T04:19:32;11.63;;;5.50;;
24084;SDS011;12268;52.110;5.548;2023-06-19T04:21:58;8.02;;;5.97;;
24084;SDS011;12268;52.110;5.548;2023-06-19T04:24:23;8.45;;;6.22;;
24084;SDS011;12268;52.110;5.548;2023-06-19T04:26:49;10.57;;;7.05;;
24084;SDS011;12268;52.110;5.548;2023-06-19T04:29:14;10.45;;;6.93;;
24084;SDS011;12268;52.110;5.548;2023-06-19T04:31:43;9.98;;;7.05;;
24084;SDS011;12268;52.110;5.548;2023-06-19T04:34:12;10.63;;;7.70;;
24084;SDS011;12268;52.110;5.548;2023-06-19T04:36:40;10.77;;;7.65;;
24084;SDS011;12268;52.110;5.548;2023-06-19T04:39:06;11.65;;;7.70;;
24084;SDS011;12268;52.110;5.548;2023-06-19T04:41:31;11.98;;;8.15;;
24084;SDS011;12268;52.110;5.548;2023-06-19T04:43:57;10.05;;;7.65;;
24084;SDS011;12268;52.110;5.548;2023-06-19T04:46:23;11.75;;;7.28;;
24084;SDS011;12268;52.110;5.548;2023-06-19T04:48:48;10.43;;;7.32;;
24084;SDS011;12268;52.110;5.548;2023-06-19T04:51:17;12.05;;;7.90;;
24084;SDS011;12268;52.110;5.548;2023-06-19T04:53:46;11.25;;;8.52;;
24084;SDS011;12268;52.110;5.548;2023-06-19T04:56:13;13.00;;;9.27;;
24084;SDS011;12268;52.110;5.548;2023-06-19T04:58:39;15.13;;;8.80;;
24084;SDS011;12268;52.110;5.548;2023-06-19T05:03:39;13.82;;;10.27;;
24084;SDS011;12268;52.110;5.548;2023-06-19T05:06:06;17.60;;;11.20;;
24084;SDS011;12268;52.110;5.548;2023-06-19T05:08:32;16.02;;;11.32;;
24084;SDS011;12268;52.110;5.548;2023-06-19T05:10:57;17.38;;;11.20;;
24084;SDS011;12268;52.110;5.548;2023-06-19T05:13:23;15.15;;;11.00;;
24084;SDS011;12268;52.110;5.548;2023-06-19T05:15:49;15.48;;;11.00;;
24084;SDS011;12268;52.110;5.548;2023-06-19T05:18:18;15.88;;;11.57;;
24084;SDS011;12268;52.110;5.548;2023-06-19T05:20:44;16.85;;;11.68;;
24084;SDS011;12268;52.110;5.548;2023-06-19T05:23:10;14.43;;;10.48;;
24084;SDS011;12268;52.110;5.548;2023-06-19T05:25:35;17.98;;;10.70;;
24084;SDS011;12268;52.110;5.548;2023-06-19T05:28:01;17.95;;;11.70;;
24084;SDS011;12268;52.110;5.548;2023-06-19T05:30:26;15.45;;;11.13;;
24084;SDS011;12268;52.110;5.548;2023-06-19T05:32:52;17.10;;;11.18;;
24084;SDS011;12268;52.110;5.548;2023-06-19T05:35:17;17.35;;;11.43;;
24084;SDS011;12268;52.110;5.548;2023-06-19T05:37:43;16.20;;;10.10;;
24084;SDS011;12268;52.110;5.548;2023-06-19T05:40:10;13.98;;;10.10;;
24084;SDS011;12268;52.110;5.548;2023-06-19T05:42:36;17.23;;;11.93;;
24084;SDS011;12268;52.110;5.548;2023-06-19T05:45:02;15.85;;;10.70;;
24084;SDS011;12268;52.110;5.548;2023-06-19T05:47:28;20.75;;;12.32;;
24084;SDS011;12268;52.110;5.548;2023-06-19T05:49:55;19.45;;;12.07;;
24084;SDS011;12268;52.110;5.548;2023-06-19T05:52:24;18.55;;;12.02;;
24084;SDS011;12268;52.110;5.548;2023-06-19T05:54:50;14.25;;;10.52;;
24084;SDS011;12268;52.110;5.548;2023-06-19T05:57:17;15.40;;;11.32;;
24084;SDS011;12268;52.110;5.548;2023-06-19T05:59:46;14.65;;;10.57;;
24084;SDS011;12268;52.110;5.548;2023-06-19T06:02:12;15.48;;;11.15;;
24084;SDS011;12268;52.110;5.548;2023-06-19T06:04:37;16.23;;;10.52;;
24084;SDS011;12268;52.110;5.548;2023-06-19T06:07:03;18.42;;;10.13;;
24084;SDS011;12268;52.110;5.548;2023-06-19T06:09:28;17.25;;;10.13;;
24084;SDS011;12268;52.110;5.548;2023-06-19T06:11:54;14.50;;;9.65;;
24084;SDS011;12268;52.110;5.548;2023-06-19T06:14:20;15.65;;;10.07;;
24084;SDS011;12268;52.110;5.548;2023-06-19T06:16:45;13.98;;;9.05;;
24084;SDS011;12268;52.110;5.548;2023-06-19T06:19:11;13.88;;;9.02;;
24084;SDS011;12268;52.110;5.548;2023-06-19T06:21:36;14.18;;;8.88;;
24084;SDS011;12268;52.110;5.548;2023-06-19T06:24:02;11.20;;;7.38;;
24084;SDS011;12268;52.110;5.548;2023-06-19T06:26:28;15.13;;;9.55;;
24084;SDS011;12268;52.110;5.548;2023-06-19T06:28:54;14.18;;;10.50;;
24084;SDS011;12268;52.110;5.548;2023-06-19T06:31:21;17.67;;;11.98;;
24084;SDS011;12268;52.110;5.548;2023-06-19T06:33:47;19.30;;;12.65;;
24084;SDS011;12268;52.110;5.548;2023-06-19T06:36:14;16.73;;;12.40;;
24084;SDS011;12268;52.110;5.548;2023-06-19T06:38:40;17.92;;;12.88;;
24084;SDS011;12268;52.110;5.548;2023-06-19T06:41:05;17.48;;;12.57;;
24084;SDS011;12268;52.110;5.548;2023-06-19T06:43:31;17.63;;;11.75;;
24084;SDS011;12268;52.110;5.548;2023-06-19T06:45:57;18.23;;;13.02;;
24084;SDS011;12268;52.110;5.548;2023-06-19T06:48:22;17.75;;;12.00;;
24084;SDS011;12268;52.110;5.548;2023-06-19T06:50:48;12.43;;;9.70;;
24084;SDS011;12268;52.110;5.548;2023-06-19T06:53:13;14.23;;;10.02;;
24084;SDS011;12268;52.110;5.548;2023-06-19T06:55:39;14.35;;;9.95;;
24084;SDS011;12268;52.110;5.548;2023-06-19T06:58:05;12.55;;;9.75;;
24084;SDS011;12268;52.110;5.548;2023-06-19T07:00:30;13.23;;;8.77;;
24084;SDS011;12268;52.110;5.548;2023-06-19T07:02:56;12.00;;;8.43;;
24084;SDS011;12268;52.110;5.548;2023-06-19T07:05:22;11.20;;;8.77;;
24084;SDS011;12268;52.110;5.548;2023-06-19T07:07:47;12.45;;;9.20;;
24084;SDS011;12268;52.110;5.548;2023-06-19T07:10:13;10.27;;;8.00;;
24084;SDS011;12268;52.110;5.548;2023-06-19T07:12:48;13.25;;;9.35;;
24084;SDS011;12268;52.110;5.548;2023-06-19T07:15:14;10.95;;;7.72;;
24084;SDS011;12268;52.110;5.548;2023-06-19T07:17:39;12.77;;;8.82;;
24084;SDS011;12268;52.110;5.548;2023-06-19T07:20:05;13.13;;;9.50;;
24084;SDS011;12268;52.110;5.548;2023-06-19T07:22:31;15.90;;;10.00;;
24084;SDS011;12268;52.110;5.548;2023-06-19T07:24:57;11.13;;;8.95;;
24084;SDS011;12268;52.110;5.548;2023-06-19T07:27:23;13.65;;;10.85;;
24084;SDS011;12268;52.110;5.548;2023-06-19T07:29:52;15.48;;;11.43;;
24084;SDS011;12268;52.110;5.548;2023-06-19T07:32:18;15.60;;;12.05;;
24084;SDS011;12268;52.110;5.548;2023-06-19T07:34:44;15.65;;;12.70;;
24084;SDS011;12268;52.110;5.548;2023-06-19T07:37:10;14.48;;;12.15;;
24084;SDS011;12268;52.110;5.548;2023-06-19T07:39:42;18.55;;;13.50;;
24084;SDS011;12268;52.110;5.548;2023-06-19T07:42:11;17.15;;;13.60;;
24084;SDS011;12268;52.110;5.548;2023-06-19T07:44:37;19.35;;;12.88;;
24084;SDS011;12268;52.110;5.548;2023-06-19T07:47:03;21.60;;;13.45;;
24084;SDS011;12268;52.110;5.548;2023-06-19T07:49:28;17.75;;;13.68;;
24084;SDS011;12268;52.110;5.548;2023-06-19T07:51:54;16.85;;;12.38;;
24084;SDS011;12268;52.110;5.548;2023-06-19T07:54:19;17.58;;;13.90;;
24084;SDS011;12268;52.110;5.548;2023-06-19T07:56:45;16.90;;;12.35;;
24084;SDS011;12268;52.110;5.548;2023-06-19T07:59:10;17.88;;;13.45;;
24084;SDS011;12268;52.110;5.548;2023-06-19T08:01:36;18.73;;;14.15;;
24084;SDS011;12268;52.110;5.548;2023-06-19T08:04:02;23.02;;;14.85;;
24084;SDS011;12268;52.110;5.548;2023-06-19T08:06:27;21.30;;;16.13;;
24084;SDS011;12268;52.110;5.548;2023-06-19T08:08:53;20.45;;;15.90;;
24084;SDS011;12268;52.110;5.548;2023-06-19T08:11:18;23.67;;;15.60;;
24084;SDS011;12268;52.110;5.548;2023-06-19T08:13:44;22.10;;;15.23;;
24084;SDS011;12268;52.110;5.548;2023-06-19T08:16:09;21.10;;;14.88;;
24084;SDS011;12268;52.110;5.548;2023-06-19T08:18:35;22.45;;;15.88;;
24084;SDS011;12268;52.110;5.548;2023-06-19T08:21:01;18.42;;;14.07;;
24084;SDS011;12268;52.110;5.548;2023-06-19T08:23:26;21.88;;;16.02;;
24084;SDS011;12268;52.110;5.548;2023-06-19T08:25:52;21.48;;;14.88;;
24084;SDS011;12268;52.110;5.548;2023-06-19T08:28:17;23.63;;;15.43;;
24084;SDS011;12268;52.110;5.548;2023-06-19T08:30:44;24.15;;;18.35;;
24084;SDS011;12268;52.110;5.548;2023-06-19T08:33:10;23.80;;;16.65;;
24084;SDS011;12268;52.110;5.548;2023-06-19T08:35:37;23.38;;;17.20;;
24084;SDS011;12268;52.110;5.548;2023-06-19T08:38:03;23.83;;;17.00;;
24084;SDS011;12268;52.110;5.548;2023-06-19T08:40:28;23.75;;;16.83;;
24084;SDS011;12268;52.110;5.548;2023-06-19T08:42:54;23.48;;;16.90;;
24084;SDS011;12268;52.110;5.548;2023-06-19T08:45:20;22.58;;;16.25;;
24084;SDS011;12268;52.110;5.548;2023-06-19T08:47:49;21.40;;;15.98;;
24084;SDS011;12268;52.110;5.548;2023-06-19T08:50:23;24.17;;;15.35;;
24084;SDS011;12268;52.110;5.548;2023-06-19T08:52:49;21.65;;;15.10;;
24084;SDS011;12268;52.110;5.548;2023-06-19T08:55:15;23.30;;;15.00;;
24084;SDS011;12268;52.110;5.548;2023-06-19T08:57:40;20.58;;;15.38;;
24084;SDS011;12268;52.110;5.548;2023-06-19T09:00:06;21.23;;;14.38;;
24084;SDS011;12268;52.110;5.548;2023-06-19T09:02:36;23.17;;;14.52;;
24084;SDS011;12268;52.110;5.548;2023-06-19T09:05:15;21.65;;;14.00;;
24084;SDS011;12268;52.110;5.548;2023-06-19T09:07:43;20.70;;;14.48;;
24084;SDS011;12268;52.110;5.548;2023-06-19T09:10:19;20.38;;;13.75;;
24084;SDS011;12268;52.110;5.548;2023-06-19T09:13:01;22.98;;;15.80;;
24084;SDS011;12268;52.110;5.548;2023-06-19T09:15:29;24.38;;;16.67;;
24084;SDS011;12268;52.110;5.548;2023-06-19T09:18:06;26.25;;;17.98;;
24084;SDS011;12268;52.110;5.548;2023-06-19T09:20:34;24.38;;;17.85;;
24084;SDS011;12268;52.110;5.548;2023-06-19T09:23:03;25.88;;;17.15;;
24084;SDS011;12268;52.110;5.548;2023-06-19T09:25:29;25.05;;;18.08;;
24084;SDS011;12268;52.110;5.548;2023-06-19T09:27:55;25.25;;;18.60;;
24084;SDS011;12268;52.110;5.548;2023-06-19T09:30:21;22.48;;;16.05;;
24084;SDS011;12268;52.110;5.548;2023-06-19T09:32:47;25.17;;;17.55;;
24084;SDS011;12268;52.110;5.548;2023-06-19T09:35:13;28.20;;;19.20;;
24084;SDS011;12268;52.110;5.548;2023-06-19T09:37:39;26.95;;;19.77;;
24084;SDS011;12268;52.110;5.548;2023-06-19T09:40:05;25.25;;;18.70;;
24084;SDS011;12268;52.110;5.548;2023-06-19T09:42:35;25.83;;;18.70;;
24084;SDS011;12268;52.110;5.548;2023-06-19T09:45:06;19.00;;;14.65;;
24084;SDS011;12268;52.110;5.548;2023-06-19T09:47:37;22.20;;;16.48;;
24084;SDS011;12268;52.110;5.548;2023-06-19T09:50:07;23.52;;;16.92;;
24084;SDS011;12268;52.110;5.548;2023-06-19T09:52:35;22.65;;;18.08;;
24084;SDS011;12268;52.110;5.548;2023-06-19T09:55:04;27.73;;;17.27;;
24084;SDS011;12268;52.110;5.548;2023-06-19T09:57:32;21.67;;;16.92;;
24084;SDS011;12268;52.110;5.548;2023-06-19T09:59:58;25.90;;;17.67;;
24084;SDS011;12268;52.110;5.548;2023-06-19T10:02:34;22.80;;;17.00;;
24084;SDS011;12268;52.110;5.548;2023-06-19T10:05:00;27.05;;;17.48;;
24084;SDS011;12268;52.110;5.548;2023-06-19T10:07:31;22.27;;;18.05;;
24084;SDS011;12268;52.110;5.548;2023-06-19T10:09:59;20.95;;;16.23;;
24084;SDS011;12268;52.110;5.548;2023-06-19T10:12:34;23.33;;;16.63;;
24084;SDS011;12268;52.110;5.548;2023-06-19T10:17:37;22.30;;;15.65;;
24084;SDS011;12268;52.110;5.548;2023-06-19T10:20:07;20.00;;;13.63;;
24084;SDS011;12268;52.110;5.548;2023-06-19T10:22:51;19.77;;;13.57;;
24084;SDS011;12268;52.110;5.548;2023-06-19T10:25:38;17.90;;;13.70;;
24084;SDS011;12268;52.110;5.548;2023-06-19T10:28:25;18.73;;;15.43;;
24084;SDS011;12268;52.110;5.548;2023-06-19T10:33:25;21.48;;;15.65;;
24084;SDS011;12268;52.110;5.548;2023-06-19T10:35:52;20.25;;;13.85;;
24084;SDS011;12268;52.110;5.548;2023-06-19T10:38:18;17.65;;;12.95;;
24084;SDS011;12268;52.110;5.548;2023-06-19T10:40:44;17.70;;;13.98;;
24084;SDS011;12268;52.110;5.548;2023-06-19T10:43:11;17.92;;;13.57;;
24084;SDS011;12268;52.110;5.548;2023-06-19T10:45:37;23.23;;;13.23;;
24084;SDS011;12268;52.110;5.548;2023-06-19T10:48:03;21.58;;;15.02;;
24084;SDS011;12268;52.110;5.548;2023-06-19T10:50:30;20.05;;;13.23;;
24084;SDS011;12268;52.110;5.548;2023-06-19T10:53:00;23.27;;;14.55;;
24084;SDS011;12268;52.110;5.548;2023-06-19T10:55:26;18.58;;;12.52;;
24084;SDS011;12268;52.110;5.548;2023-06-19T10:57:51;18.83;;;14.70;;
24084;SDS011;12268;52.110;5.548;2023-06-19T11:00:35;22.45;;;14.25;;
24084;SDS011;12268;52.110;5.548;2023-06-19T11:03:00;21.33;;;15.32;;
24084;SDS011;12268;52.110;5.548;2023-06-19T11:05:27;19.15;;;12.80;;
24084;SDS011;12268;52.110;5.548;2023-06-19T11:07:54;20.27;;;15.45;;
24084;SDS011;12268;52.110;5.548;2023-06-19T11:10:21;18.60;;;13.88;;
24084;SDS011;12268;52.110;5.548;2023-06-19T11:12:49;18.25;;;13.45;;
24084;SDS011;12268;52.110;5.548;2023-06-19T11:15:18;17.92;;;14.25;;
24084;SDS011;12268;52.110;5.548;2023-06-19T11:17:43;20.60;;;14.00;;
24084;SDS011;12268;52.110;5.548;2023-06-19T11:20:10;20.80;;;14.70;;
24084;SDS011;12268;52.110;5.548;2023-06-19T11:22:38;16.50;;;13.05;;
24084;SDS011;12268;52.110;5.548;2023-06-19T11:25:05;17.15;;;13.32;;
24084;SDS011;12268;52.110;5.548;2023-06-19T11:27:32;22.60;;;14.32;;
24084;SDS011;12268;52.110;5.548;2023-06-19T11:29:58;17.85;;;14.40;;
24084;SDS011;12268;52.110;5.548;2023-06-19T11:32:24;18.33;;;13.98;;
24084;SDS011;12268;52.110;5.548;2023-06-19T11:34:56;19.25;;;12.73;;
24084;SDS011;12268;52.110;5.548;2023-06-19T11:37:21;18.55;;;13.60;;
24084;SDS011;12268;52.110;5.548;2023-06-19T11:39:48;19.77;;;14.15;;
24084;SDS011;12268;52.110;5.548;2023-06-19T11:42:15;16.75;;;12.70;;
24084;SDS011;12268;52.110;5.548;2023-06-19T11:45:03;16.15;;;12.27;;
24084;SDS011;12268;52.110;5.548;2023-06-19T11:47:31;16.15;;;12.30;;
24084;SDS011;12268;52.110;5.548;2023-06-19T11:49:57;18.48;;;13.60;;
24084;SDS011;12268;52.110;5.548;2023-06-19T11:52:23;17.10;;;14.00;;
24084;SDS011;12268;52.110;5.548;2023-06-19T11:54:49;16.73;;;12.90;;
24084;SDS011;12268;52.110;5.548;2023-06-19T11:57:14;16.08;;;12.30;;
24084;SDS011;12268;52.110;5.548;2023-06-19T11:59:40;15.65;;;12.07;;
24084;SDS011;12268;52.110;5.548;2023-06-19T12:02:07;16.00;;;12.30;;
24084;SDS011;12268;52.110;5.548;2023-06-19T12:04:34;20.42;;;13.32;;
24084;SDS011;12268;52.110;5.548;2023-06-19T12:07:00;13.95;;;12.02;;
24084;SDS011;12268;52.110;5.548;2023-06-19T12:09:26;16.35;;;13.13;;
24084;SDS011;12268;52.110;5.548;2023-06-19T12:11:52;16.30;;;12.30;;
24084;SDS011;12268;52.110;5.548;2023-06-19T12:14:18;15.38;;;11.85;;
24084;SDS011;12268;52.110;5.548;2023-06-19T12:16:47;14.68;;;12.50;;
24084;SDS011;12268;52.110;5.548;2023-06-19T12:19:13;17.90;;;12.43;;
24084;SDS011;12268;52.110;5.548;2023-06-19T12:21:39;14.77;;;11.18;;
24084;SDS011;12268;52.110;5.548;2023-06-19T12:24:04;13.25;;;10.30;;
24084;SDS011;12268;52.110;5.548;2023-06-19T12:26:30;15.32;;;12.80;;
24084;SDS011;12268;52.110;5.548;2023-06-19T12:31:31;16.67;;;12.90;;
24084;SDS011;12268;52.110;5.548;2023-06-19T12:33:57;16.67;;;13.57;;
24084;SDS011;12268;52.110;5.548;2023-06-19T12:36:22;16.50;;;14.10;;
24084;SDS011;12268;52.110;5.548;2023-06-19T12:38:49;17.52;;;14.50;;
24084;SDS011;12268;52.110;5.548;2023-06-19T12:41:14;15.93;;;14.25;;
24084;SDS011;12268;52.110;5.548;2023-06-19T12:43:40;14.93;;;12.82;;
24084;SDS011;12268;52.110;5.548;2023-06-19T12:46:06;13.18;;;11.45;;
24084;SDS011;12268;52.110;5.548;2023-06-19T12:48:32;14.98;;;11.43;;
24084;SDS011;12268;52.110;5.548;2023-06-19T12:50:58;15.10;;;12.95;;
24084;SDS011;12268;52.110;5.548;2023-06-19T12:53:23;12.55;;;11.13;;
24084;SDS011;12268;52.110;5.548;2023-06-19T12:55:53;13.55;;;11.65;;
24084;SDS011;12268;52.110;5.548;2023-06-19T12:58:19;14.68;;;12.02;;
24084;SDS011;12268;52.110;5.548;2023-06-19T13:00:44;15.60;;;12.02;;
24084;SDS011;12268;52.110;5.548;2023-06-19T13:03:10;13.55;;;11.75;;
24084;SDS011;12268;52.110;5.548;2023-06-19T13:05:35;13.18;;;10.63;;
24084;SDS011;12268;52.110;5.548;2023-06-19T13:08:01;12.45;;;10.63;;
24084;SDS011;12268;52.110;5.548;2023-06-19T13:10:27;14.65;;;9.90;;
24084;SDS011;12268;52.110;5.548;2023-06-19T13:12:52;14.13;;;11.27;;
24084;SDS011;12268;52.110;5.548;2023-06-19T13:15:18;14.43;;;12.13;;
24084;SDS011;12268;52.110;5.548;2023-06-19T13:17:43;10.98;;;9.60;;
24084;SDS011;12268;52.110;5.548;2023-06-19T13:20:09;12.48;;;9.60;;
24084;SDS011;12268;52.110;5.548;2023-06-19T13:22:34;12.80;;;9.23;;
24084;SDS011;12268;52.110;5.548;2023-06-19T13:25:00;11.25;;;9.15;;
24084;SDS011;12268;52.110;5.548;2023-06-19T13:27:27;12.32;;;10.07;;
24084;SDS011;12268;52.110;5.548;2023-06-19T13:29:53;13.23;;;11.05;;
24084;SDS011;12268;52.110;5.548;2023-06-19T13:32:19;11.98;;;9.05;;
24084;SDS011;12268;52.110;5.548;2023-06-19T13:34:45;11.02;;;8.38;;
24084;SDS011;12268;52.110;5.548;2023-06-19T13:37:10;14.00;;;8.40;;
24084;SDS011;12268;52.110;5.548;2023-06-19T13:39:36;11.68;;;9.07;;
24084;SDS011;12268;52.110;5.548;2023-06-19T13:42:03;11.75;;;8.90;;
24084;SDS011;12268;52.110;5.548;2023-06-19T13:44:28;12.13;;;9.02;;
24084;SDS011;12268;52.110;5.548;2023-06-19T13:46:54;11.60;;;9.35;;
24084;SDS011;12268;52.110;5.548;2023-06-19T13:49:19;11.73;;;9.25;;
24084;SDS011;12268;52.110;5.548;2023-06-19T13:51:45;11.57;;;8.25;;
24084;SDS011;12268;52.110;5.548;2023-06-19T13:54:11;11.30;;;7.97;;
24084;SDS011;12268;52.110;5.548;2023-06-19T13:56:38;10.20;;;7.95;;
24084;SDS011;12268;52.110;5.548;2023-06-19T13:59:04;12.73;;;8.15;;
24084;SDS011;12268;52.110;5.548;2023-06-19T14:01:30;12.38;;;8.43;;
24084;SDS011;12268;52.110;5.548;2023-06-19T14:03:57;10.52;;;8.25;;
24084;SDS011;12268;52.110;5.548;2023-06-19T14:06:23;8.40;;;7.20;;
24084;SDS011;12268;52.110;5.548;2023-06-19T14:08:49;10.93;;;7.60;;
24084;SDS011;12268;52.110;5.548;2023-06-19T14:11:15;10.68;;;7.57;;
24084;SDS011;12268;52.110;5.548;2023-06-19T14:13:40;10.18;;;7.38;;
24084;SDS011;12268;52.110;5.548;2023-06-19T14:16:06;9.15;;;7.60;;
24084;SDS011;12268;52.110;5.548;2023-06-19T14:18:32;10.25;;;8.05;;
24084;SDS011;12268;52.110;5.548;2023-06-19T14:20:58;11.27;;;8.30;;
24084;SDS011;12268;52.110;5.548;2023-06-19T14:23:24;11.90;;;8.02;;
24084;SDS011;12268;52.110;5.548;2023-06-19T14:25:49;11.88;;;8.35;;
24084;SDS011;12268;52.110;5.548;2023-06-19T14:28:15;10.48;;;7.88;;
24084;SDS011;12268;52.110;5.548;2023-06-19T14:30:40;12.38;;;7.47;;
24084;SDS011;12268;52.110;5.548;2023-06-19T14:33:06;8.75;;;6.72;;
24084;SDS011;12268;52.110;5.548;2023-06-19T14:35:35;9.45;;;7.75;;
24084;SDS011;12268;52.110;5.548;2023-06-19T14:38:00;12.23;;;7.50;;
24084;SDS011;12268;52.110;5.548;2023-06-19T14:40:26;11.02;;;7.50;;